Time;durP1;ratioP1;P1;durP2;ratioP2;P2;SDS_P1;SDS_P2;PMS_P1;PMS_P2;Temp;Humidity;BMP_temperature;BMP_pressure;BME280_temperature;BME280_humidity;BME280_pressure;Samples;Min_cycle;Max_cycle;Signal;HPM_P1;HPM_P2
2022/10/19 00:01:50;;;;;;;;;;;;;;;;;;5036660;28;19913;-86
2022/10/19 00:04:15;;;;;;;;;;;;;;;;;;5034475;28;19913;-86
2022/10/19 00:06:41;;;;;;;;;;;;;;;;;;5035176;28;20000;-87
2022/10/19 00:09:06;;;;;;;;;;;;;;;;;;5018672;28;19917;-87
2022/10/19 00:11:32;;;;;;;;;;;;;;;;;;5035359;28;19921;-87
2022/10/19 00:13:57;;;;;;;;;;;;;;;;;;5054678;28;19978;-87
2022/10/19 00:16:22;;;;;;;;;;;;;;;;;;5037853;28;19913;-87
2022/10/19 00:18:48;;;;;;;;;;;;;;;;;;5038301;28;19913;-88
2022/10/19 00:21:13;;;;;;;;;;;;;;;;;;5054394;28;19913;-87
2022/10/19 00:23:39;;;;;;;;;;;;;;;;;;5038347;28;19952;-87
2022/10/19 00:26:04;;;;;;;;;;;;;;;;;;5055403;28;19912;-87
2022/10/19 00:28:29;;;;;;;;;;;;;;;;;;5053634;28;19916;-87
2022/10/19 00:30:55;;;;;;;;;;;;;;;;;;5054244;28;19998;-87
2022/10/19 00:33:21;;;;;;;;;;;;;;;;;;5054577;28;19916;-87
2022/10/19 00:35:48;;;;;;;;;;;;;;;;;;5056367;28;19928;-87
2022/10/19 00:38:14;;;;;;;;;;;;;;;;;;5043176;28;19912;-86
2022/10/19 00:40:39;;;;;;;;;;;;;;;;;;5033558;28;19913;-88
2022/10/19 00:43:04;;;;;;;;;;;;;;;;;;5060909;28;19920;-87
2022/10/19 00:45:30;;;;;;;;;;;;;;;;;;5038176;28;20038;-88
2022/10/19 00:47:55;;;;;;;;;;;;;;;;;;5036890;28;20422;-88
2022/10/19 00:50:20;;;;;;;;;;;;;;;;;;5020755;28;19995;-85
2022/10/19 00:52:46;;;;;;;;;;;;;;;;;;5020215;28;20379;-87
2022/10/19 00:55:11;;;;;;;;;;;;;;;;;;5053291;28;19947;-86
2022/10/19 00:57:37;;;;;;;;;;;;;;;;;;5053819;28;20080;-87
2022/10/19 01:00:02;;;;;;;;;;;;;;;;;;5049515;28;20372;-88
2022/10/19 01:02:28;;;;;;;;;;;;;;;;;;5034109;28;19913;-87
2022/10/19 01:04:53;;;;;;;;;;;;;;;;;;5016097;28;19917;-88
2022/10/19 01:07:18;;;;;;;;;;;;;;;;;;5034437;28;19913;-89
2022/10/19 01:09:44;;;;;;;;;;;;;;;;;;5017050;28;19939;-87
2022/10/19 01:12:09;;;;;;;;;;;;;;;;;;5033893;28;20411;-87
2022/10/19 01:14:34;;;;;;;;;;;;;;;;;;5033550;28;19920;-88
2022/10/19 01:17:00;;;;;;;;;;;;;;;;;;5034336;28;19917;-87
2022/10/19 01:19:25;;;;;;;;;;;;;;;;;;5051302;28;19919;-87
2022/10/19 01:21:51;;;;;;;;;;;;;;;;;;5055941;28;19913;-86
2022/10/19 01:24:16;;;;;;;;;;;;;;;;;;5060133;28;19913;-87
2022/10/19 01:26:42;;;;;;;;;;;;;;;;;;5055066;28;20371;-85
2022/10/19 01:29:07;;;;;;;;;;;;;;;;;;5052828;28;19952;-86
2022/10/19 01:31:32;;;;;;;;;;;;;;;;;;5036388;28;19970;-86
2022/10/19 01:33:58;;;;;;;;;;;;;;;;;;5051677;28;19932;-87
2022/10/19 01:36:23;;;;;;;;;;;;;;;;;;5036946;28;19959;-86
2022/10/19 01:38:49;;;;;;;;;;;;;;;;;;5044027;28;20401;-86
2022/10/19 01:41:14;;;;;;;;;;;;;;;;;;5062658;28;20357;-86
2022/10/19 01:43:39;;;;;;;;;;;;;;;;;;5053143;28;19966;-86
2022/10/19 01:46:05;;;;;;;;;;;;;;;;;;5053025;28;20423;-86
2022/10/19 01:48:30;;;;;;;;;;;;;;;;;;5053630;28;19921;-86
2022/10/19 01:50:56;;;;;;;;;;;;;;;;;;5035376;28;20368;-87
2022/10/19 01:53:21;;;;;;;;;;;;;;;;;;5051983;28;19960;-87
2022/10/19 01:55:46;;;;;;;;;;;;;;;;;;5053902;28;19971;-87
2022/10/19 01:58:12;;;;;;;;;;;;;;;;;;5053093;28;19909;-85
2022/10/19 02:00:37;;;;;;;;;;;;;;;;;;5054070;28;20038;-88
2022/10/19 02:03:02;;;;;;;;;;;;;;;;;;5052381;28;19913;-86
2022/10/19 02:05:28;;;;;;;;;;;;;;;;;;5052654;28;19917;-87
2022/10/19 02:07:53;;;;;;;;;;;;;;;;;;5035233;28;20303;-86
2022/10/19 02:10:19;;;;;;;;;;;;;;;;;;5053879;28;19913;-85
2022/10/19 02:12:44;;;;;;;;;;;;;;;;;;5051964;28;20394;-86
2022/10/19 02:15:09;;;;;;;;;;;;;;;;;;5054441;28;19919;-85
2022/10/19 02:17:35;;;;;;;;;;;;;;;;;;5052692;28;19909;-85
2022/10/19 02:20:00;;;;;;;;;;;;;;;;;;5056117;28;19949;-86
2022/10/19 02:22:26;;;;;;;;;;;;;;;;;;5057307;28;19913;-87
2022/10/19 02:24:51;;;;;;;;;;;;;;;;;;5038539;28;20295;-87
2022/10/19 02:27:17;;;;;;;;;;;;;;;;;;5039031;28;19974;-87
2022/10/19 02:29:43;;;;;;;;;;;;;;;;;;5057054;28;19917;-87
2022/10/19 02:32:08;;;;;;;;;;;;;;;;;;5057779;28;19912;-88
2022/10/19 02:34:34;;;;;;;;;;;;;;;;;;5060733;28;19919;-86
2022/10/19 02:36:59;;;;;;;;;;;;;;;;;;5059116;28;19919;-86
2022/10/19 02:39:24;;;;;;;;;;;;;;;;;;5063072;28;19919;-86
2022/10/19 02:41:50;;;;;;;;;;;;;;;;;;5062175;28;19913;-86
2022/10/19 02:44:15;;;;;;;;;;;;;;;;;;5056750;28;19913;-87
2022/10/19 02:46:41;;;;;;;;;;;;;;;;;;5052575;28;20376;-87
2022/10/19 02:49:06;;;;;;;;;;;;;;;;;;5035046;28;19917;-87
2022/10/19 02:51:32;;;;;;;;;;;;;;;;;;5051346;28;20008;-85
2022/10/19 02:53:57;;;;;;;;;;;;;;;;;;5051056;28;20011;-86
2022/10/19 02:56:22;;;;;;;;;;;;;;;;;;5050513;28;19920;-86
2022/10/19 02:58:48;;;;;;;;;;;;;;;;;;5051669;28;20261;-87
2022/10/19 03:01:13;;;;;;;;;;;;;;;;;;5051821;28;20391;-88
2022/10/19 03:03:39;;;;;;;;;;;;;;;;;;5050997;28;19913;-89
2022/10/19 03:06:04;;;;;;;;;;;;;;;;;;5038448;23;19964;-86
2022/10/19 03:08:29;;;;;;;;;;;;;;;;;;4978881;28;20008;-84
2022/10/19 03:10:55;;;;;;;;;;;;;;;;;;5011257;28;19920;-86
2022/10/19 03:13:20;;;;;;;;;;;;;;;;;;5011070;28;19960;-86
2022/10/19 03:15:46;;;;;;;;;;;;;;;;;;4962740;28;19940;-86
2022/10/19 03:18:11;;;;;;;;;;;;;;;;;;4979042;28;19961;-87
2022/10/19 03:20:36;;;;;;;;;;;;;;;;;;4994907;28;19968;-85
2022/10/19 03:23:02;;;;;;;;;;;;;;;;;;4994299;28;20008;-87
2022/10/19 03:25:27;;;;;;;;;;;;;;;;;;4962463;28;20016;-87
2022/10/19 03:27:52;;;;;;;;;;;;;;;;;;4995228;28;19917;-85
2022/10/19 03:30:18;;;;;;;;;;;;;;;;;;4966690;28;19925;-87
2022/10/19 03:32:43;;;;;;;;;;;;;;;;;;4996291;28;19914;-87
2022/10/19 03:35:08;;;;;;;;;;;;;;;;;;4979879;28;20407;-86
2022/10/19 03:37:34;;;;;;;;;;;;;;;;;;4979755;28;19909;-84
2022/10/19 03:39:59;;;;;;;;;;;;;;;;;;4999633;28;19918;-86
2022/10/19 03:42:24;;;;;;;;;;;;;;;;;;4997284;28;19914;-85
2022/10/19 03:44:50;;;;;;;;;;;;;;;;;;4964183;28;20381;-85
2022/10/19 03:47:15;;;;;;;;;;;;;;;;;;4985336;28;19914;-85
2022/10/19 03:49:42;;;;;;;;;;;;;;;;;;4996610;28;20016;-86
2022/10/19 03:52:08;;;;;;;;;;;;;;;;;;4995192;28;19961;-85
2022/10/19 03:54:34;;;;;;;;;;;;;;;;;;4995711;28;19941;-85
2022/10/19 03:56:59;;;;;;;;;;;;;;;;;;4978410;28;20389;-87
2022/10/19 03:59:24;;;;;;;;;;;;;;;;;;4962549;28;20004;-85
2022/10/19 04:01:50;;;;;;;;;;;;;;;;;;4978754;28;19914;-86
2022/10/19 04:04:15;;;;;;;;;;;;;;;;;;4964736;28;20343;-84
2022/10/19 04:06:41;;;;;;;;;;;;;;;;;;4978323;28;20392;-86
2022/10/19 04:09:06;;;;;;;;;;;;;;;;;;4978129;28;19918;-86
2022/10/19 04:11:32;;;;;;;;;;;;;;;;;;4962350;28;20385;-84
2022/10/19 04:13:57;;;;;;;;;;;;;;;;;;4978029;28;19921;-85
2022/10/19 04:16:22;;;;;;;;;;;;;;;;;;4995633;28;20415;-86
2022/10/19 04:18:48;;;;;;;;;;;;;;;;;;4962289;28;20400;-85
2022/10/19 04:21:13;;;;;;;;;;;;;;;;;;4983511;28;19913;-87
2022/10/19 04:23:39;;;;;;;;;;;;;;;;;;4997271;28;19933;-87
2022/10/19 04:26:04;;;;;;;;;;;;;;;;;;4997736;28;19920;-87
2022/10/19 04:28:29;;;;;;;;;;;;;;;;;;5014755;28;19922;-85
2022/10/19 04:30:55;;;;;;;;;;;;;;;;;;5014989;28;19976;-85
2022/10/19 04:33:20;;;;;;;;;;;;;;;;;;4996877;28;20391;-86
2022/10/19 04:35:45;;;;;;;;;;;;;;;;;;5014665;28;19937;-87
2022/10/19 04:38:11;;;;;;;;;;;;;;;;;;5014621;28;19920;-86
2022/10/19 04:40:36;;;;;;;;;;;;;;;;;;4998812;28;20411;-86
2022/10/19 04:43:01;;;;;;;;;;;;;;;;;;5015524;28;19959;-83
2022/10/19 04:45:27;;;;;;;;;;;;;;;;;;5021739;28;19914;-82
2022/10/19 04:47:53;;;;;;;;;;;;;;;;;;5007767;28;19917;-83
2022/10/19 04:50:18;;;;;;;;;;;;;;;;;;4983664;28;19921;-82
2022/10/19 04:52:43;;;;;;;;;;;;;;;;;;5015061;28;19913;-84
2022/10/19 04:55:09;;;;;;;;;;;;;;;;;;4997328;28;19924;-85
2022/10/19 04:57:34;;;;;;;;;;;;;;;;;;4997004;28;20381;-84
2022/10/19 04:59:59;;;;;;;;;;;;;;;;;;4980938;28;20444;-85
2022/10/19 05:02:25;;;;;;;;;;;;;;;;;;4997828;28;19968;-87
2022/10/19 05:04:50;;;;;;;;;;;;;;;;;;4996546;28;19936;-86
2022/10/19 05:07:15;;;;;;;;;;;;;;;;;;4964757;28;19952;-86
2022/10/19 05:09:41;;;;;;;;;;;;;;;;;;4995815;28;20025;-87
2022/10/19 05:12:06;;;;;;;;;;;;;;;;;;5014066;28;19913;-86
2022/10/19 05:14:32;;;;;;;;;;;;;;;;;;4995768;28;19918;-85
2022/10/19 05:16:57;;;;;;;;;;;;;;;;;;5016564;28;19913;-84
2022/10/19 05:19:22;;;;;;;;;;;;;;;;;;5014121;28;19920;-86
2022/10/19 05:21:48;;;;;;;;;;;;;;;;;;4996463;28;19914;-86
2022/10/19 05:24:13;;;;;;;;;;;;;;;;;;4980106;28;20384;-85
2022/10/19 05:26:38;;;;;;;;;;;;;;;;;;4979661;28;20004;-85
2022/10/19 05:29:04;;;;;;;;;;;;;;;;;;4996659;28;20296;-85
2022/10/19 05:31:29;;;;;;;;;;;;;;;;;;4996525;28;20323;-85
2022/10/19 05:33:55;;;;;;;;;;;;;;;;;;5013438;28;19918;-83
2022/10/19 05:36:20;;;;;;;;;;;;;;;;;;5013582;28;19914;-85
2022/10/19 05:38:46;;;;;;;;;;;;;;;;;;5013863;28;20388;-83
2022/10/19 05:41:11;;;;;;;;;;;;;;;;;;5013597;28;19913;-83
2022/10/19 05:43:36;;;;;;;;;;;;;;;;;;5013260;28;19983;-85
2022/10/19 05:46:02;;;;;;;;;;;;;;;;;;4995983;28;19921;-83
2022/10/19 05:48:31;;;;;;;;;;;;;;;;;;5022960;28;19936;-84
2022/10/19 05:50:57;;;;;;;;;;;;;;;;;;5021788;28;20047;-82
2022/10/19 05:53:22;;;;;;;;;;;;;;;;;;4996706;28;20361;-85
2022/10/19 05:55:48;;;;;;;;;;;;;;;;;;4979807;28;19968;-82
2022/10/19 05:58:13;;;;;;;;;;;;;;;;;;4996060;28;19909;-87
2022/10/19 06:00:38;;;;;;;;;;;;;;;;;;5013758;28;19920;-84
2022/10/19 06:03:04;;;;;;;;;;;;;;;;;;4994858;28;19960;-83
2022/10/19 06:05:29;;;;;;;;;;;;;;;;;;4996148;28;20391;-84
2022/10/19 06:07:54;;;;;;;;;;;;;;;;;;5013972;28;19914;-83
2022/10/19 06:10:20;;;;;;;;;;;;;;;;;;5014271;28;19917;-82
2022/10/19 06:12:45;;;;;;;;;;;;;;;;;;5008849;28;19920;-81
2022/10/19 06:15:11;;;;;;;;;;;;;;;;;;5016277;28;20373;-82
2022/10/19 06:17:36;;;;;;;;;;;;;;;;;;5012891;28;19929;-88
2022/10/19 06:20:01;;;;;;;;;;;;;;;;;;5017067;28;19986;-85
2022/10/19 06:22:27;;;;;;;;;;;;;;;;;;4996512;28;19945;-82
2022/10/19 06:24:52;;;;;;;;;;;;;;;;;;4997396;28;19917;-85
2022/10/19 06:27:18;;;;;;;;;;;;;;;;;;5000776;28;19914;-83
2022/10/19 06:29:43;;;;;;;;;;;;;;;;;;5019837;28;19917;-87
2022/10/19 06:32:08;;;;;;;;;;;;;;;;;;4984298;28;20274;-85
2022/10/19 06:34:34;;;;;;;;;;;;;;;;;;4980677;28;20282;-85
2022/10/19 06:36:59;;;;;;;;;;;;;;;;;;4983879;28;20304;-85
2022/10/19 06:39:24;;;;;;;;;;;;;;;;;;4992036;28;19960;-85
2022/10/19 06:41:50;;;;;;;;;;;;;;;;;;5025748;28;19917;-84
2022/10/19 06:44:18;;;;;;;;;;;;;;;;;;5000328;28;19922;-85
2022/10/19 06:46:44;;;;;;;;;;;;;;;;;;5010192;28;19924;-87
2022/10/19 06:49:09;;;;;;;;;;;;;;;;;;5013000;28;19976;-85
2022/10/19 06:51:34;;;;;;;;;;;;;;;;;;4988091;28;19921;-86
2022/10/19 06:54:00;;;;;;;;;;;;;;;;;;5011933;28;20596;-88
2022/10/19 06:56:25;;;;;;;;;;;;;;;;;;5025265;28;20003;-87
2022/10/19 06:58:50;;;;;;;;;;;;;;;;;;5000051;28;20441;-88
2022/10/19 07:01:16;;;;;;;;;;;;;;;;;;5013161;28;20360;-89
2022/10/19 07:03:42;;;;;;;;;;;;;;;;;;5007890;28;19914;-88
2022/10/19 07:06:07;;;;;;;;;;;;;;;;;;4998765;28;19917;-88
2022/10/19 07:08:33;;;;;;;;;;;;;;;;;;4998840;28;20056;-87
2022/10/19 07:10:58;;;;;;;;;;;;;;;;;;5016727;28;19913;-86
2022/10/19 07:13:24;;;;;;;;;;;;;;;;;;5016776;28;19913;-89
2022/10/19 07:15:50;;;;;;;;;;;;;;;;;;4999896;28;19914;-88
2022/10/19 07:18:16;;;;;;;;;;;;;;;;;;4998153;28;19920;-83
2022/10/19 07:20:41;;;;;;;;;;;;;;;;;;4998388;28;19967;-78
2022/10/19 07:23:06;;;;;;;;;;;;;;;;;;4998048;28;19979;-79
2022/10/19 07:25:32;;;;;;;;;;;;;;;;;;4998502;28;20324;-88
2022/10/19 07:27:57;;;;;;;;;;;;;;;;;;4966966;28;20292;-88
2022/10/19 07:30:22;;;;;;;;;;;;;;;;;;4965852;28;19920;-85
2022/10/19 07:32:48;;;;;;;;;;;;;;;;;;4996843;28;19918;-86
2022/10/19 07:35:13;;;;;;;;;;;;;;;;;;4998240;28;19914;-85
2022/10/19 07:37:39;;;;;;;;;;;;;;;;;;4998156;28;20296;-86
2022/10/19 07:40:04;;;;;;;;;;;;;;;;;;4997351;28;19913;-86
2022/10/19 07:42:29;;;;;;;;;;;;;;;;;;4982157;28;20332;-85
2022/10/19 07:44:55;;;;;;;;;;;;;;;;;;4998794;28;20324;-85
2022/10/19 07:47:20;;;;;;;;;;;;;;;;;;4966540;28;20003;-84
2022/10/19 07:49:46;;;;;;;;;;;;;;;;;;4999289;28;19917;-86
2022/10/19 07:52:11;;;;;;;;;;;;;;;;;;4986709;28;19913;-84
2022/10/19 07:54:37;;;;;;;;;;;;;;;;;;4976032;28;19938;-86
2022/10/19 07:57:02;;;;;;;;;;;;;;;;;;4989581;28;20288;-86
2022/10/19 07:59:27;;;;;;;;;;;;;;;;;;5016623;28;19959;-85
2022/10/19 08:01:53;;;;;;;;;;;;;;;;;;4982882;28;20261;-84
2022/10/19 08:04:18;;;;;;;;;;;;;;;;;;5017310;28;19920;-85
2022/10/19 08:06:44;;;;;;;;;;;;;;;;;;4999560;28;19918;-84
2022/10/19 08:09:09;;;;;;;;;;;;;;;;;;5017329;28;19922;-85
2022/10/19 08:11:35;;;;;;;;;;;;;;;;;;4993593;28;20024;-83
2022/10/19 08:14:03;;;;;;;;;;;;;;;;;;5008218;28;19968;-85
2022/10/19 08:16:29;;;;;;;;;;;;;;;;;;4978694;28;19920;-85
2022/10/19 08:18:54;;;;;;;;;;;;;;;;;;5022526;28;19956;-85
2022/10/19 08:21:19;;;;;;;;;;;;;;;;;;5001226;28;19993;-84
2022/10/19 08:23:45;;;;;;;;;;;;;;;;;;5005459;28;20400;-84
2022/10/19 08:26:10;;;;;;;;;;;;;;;;;;4995003;28;19925;-84
2022/10/19 08:28:36;;;;;;;;;;;;;;;;;;4993562;28;19948;-86
2022/10/19 08:31:01;;;;;;;;;;;;;;;;;;5030488;28;19956;-85
2022/10/19 08:33:26;;;;;;;;;;;;;;;;;;4978258;28;20377;-86
2022/10/19 08:35:52;;;;;;;;;;;;;;;;;;5011090;28;19918;-86
2022/10/19 08:38:18;;;;;;;;;;;;;;;;;;5002965;28;20048;-83
2022/10/19 08:40:43;;;;;;;;;;;;;;;;;;5015777;28;20345;-86
2022/10/19 08:43:09;;;;;;;;;;;;;;;;;;4996808;28;19918;-86
2022/10/19 08:45:34;;;;;;;;;;;;;;;;;;4980505;28;20004;-88
2022/10/19 08:48:00;;;;;;;;;;;;;;;;;;4997032;28;19917;-85
2022/10/19 08:50:25;;;;;;;;;;;;;;;;;;4997350;28;19981;-85
2022/10/19 08:52:51;;;;;;;;;;;;;;;;;;4996960;28;20008;-86
2022/10/19 08:55:16;;;;;;;;;;;;;;;;;;4967935;28;19918;-84
2022/10/19 08:57:41;;;;;;;;;;;;;;;;;;5025165;28;20403;-85
2022/10/19 09:00:07;;;;;;;;;;;;;;;;;;4982713;28;19961;-86
2022/10/19 09:02:32;;;;;;;;;;;;;;;;;;4996966;28;19920;-85
2022/10/19 09:04:57;;;;;;;;;;;;;;;;;;4980823;28;19914;-81
2022/10/19 09:07:23;;;;;;;;;;;;;;;;;;5014369;28;20000;-85
2022/10/19 09:09:48;;;;;;;;;;;;;;;;;;4980207;28;20373;-85
2022/10/19 09:12:14;;;;;;;;;;;;;;;;;;4996426;28;19913;-86
2022/10/19 09:14:39;;;;;;;;;;;;;;;;;;4996184;28;19949;-85
2022/10/19 09:17:04;;;;;;;;;;;;;;;;;;4996511;28;20373;-86
2022/10/19 09:19:30;;;;;;;;;;;;;;;;;;5013642;28;19963;-87
2022/10/19 09:21:56;;;;;;;;;;;;;;;;;;4996016;28;19940;-83
2022/10/19 09:24:21;;;;;;;;;;;;;;;;;;4995906;28;19925;-86
2022/10/19 09:26:47;;;;;;;;;;;;;;;;;;4995645;28;20015;-86
2022/10/19 09:29:13;;;;;;;;;;;;;;;;;;4979319;28;20150;-86
2022/10/19 09:31:38;;;;;;;;;;;;;;;;;;4964154;28;19920;-85
2022/10/19 09:34:03;;;;;;;;;;;;;;;;;;4979164;28;20285;-85
2022/10/19 09:36:29;;;;;;;;;;;;;;;;;;4979947;28;20011;-85
2022/10/19 09:38:54;;;;;;;;;;;;;;;;;;5013459;28;20249;-86
2022/10/19 09:41:20;;;;;;;;;;;;;;;;;;4996131;28;20399;-85
2022/10/19 09:43:49;;;;;;;;;;;;;;;;;;4979222;28;20051;-85
2022/10/19 09:46:15;;;;;;;;;;;;;;;;;;4980458;28;19913;-84
2022/10/19 09:48:40;;;;;;;;;;;;;;;;;;4964206;28;19996;-84
2022/10/19 09:51:05;;;;;;;;;;;;;;;;;;4996372;28;19913;-85
2022/10/19 09:53:31;;;;;;;;;;;;;;;;;;4995353;28;19981;-84
2022/10/19 09:55:56;;;;;;;;;;;;;;;;;;5013993;28;20004;-86
2022/10/19 09:58:22;;;;;;;;;;;;;;;;;;5019790;28;19917;-85
2022/10/19 10:00:49;;;;;;;;;;;;;;;;;;5023431;28;20376;-84
2022/10/19 10:03:14;;;;;;;;;;;;;;;;;;4997277;28;19914;-86
2022/10/19 10:05:40;;;;;;;;;;;;;;;;;;4996952;28;19921;-85
2022/10/19 10:08:05;;;;;;;;;;;;;;;;;;5014543;28;19913;-85
2022/10/19 10:10:33;;;;;;;;;;;;;;;;;;4996987;28;19914;-85
2022/10/19 10:12:58;;;;;;;;;;;;;;;;;;5013333;28;19913;-85
2022/10/19 10:15:24;;;;;;;;;;;;;;;;;;4980550;28;20383;-86
2022/10/19 10:17:49;;;;;;;;;;;;;;;;;;5012983;28;19947;-86
2022/10/19 10:20:14;;;;;;;;;;;;;;;;;;5014039;28;19921;-86
2022/10/19 10:22:41;;;;;;;;;;;;;;;;;;5013173;28;20167;-86
2022/10/19 10:25:07;;;;;;;;;;;;;;;;;;4995662;28;20389;-85
2022/10/19 10:27:32;;;;;;;;;;;;;;;;;;5013704;28;19913;-84
2022/10/19 10:29:58;;;;;;;;;;;;;;;;;;4980659;28;19917;-87
2022/10/19 10:32:23;;;;;;;;;;;;;;;;;;4999934;28;20284;-85
2022/10/19 10:34:48;;;;;;;;;;;;;;;;;;5000626;28;19914;-85
2022/10/19 10:37:14;;;;;;;;;;;;;;;;;;5017667;28;19909;-86
2022/10/19 10:39:39;;;;;;;;;;;;;;;;;;4968384;28;19925;-84
2022/10/19 10:42:04;;;;;;;;;;;;;;;;;;5018221;28;19913;-86
2022/10/19 10:44:30;;;;;;;;;;;;;;;;;;4997549;28;19917;-85
2022/10/19 10:46:55;;;;;;;;;;;;;;;;;;5013463;28;19913;-85
2022/10/19 10:49:21;;;;;;;;;;;;;;;;;;5012905;28;19917;-85
2022/10/19 10:51:46;;;;;;;;;;;;;;;;;;5012641;28;19967;-86
2022/10/19 10:54:12;;;;;;;;;;;;;;;;;;5012995;28;19913;-85
2022/10/19 10:56:39;;;;;;;;;;;;;;;;;;4995023;28;19913;-86
2022/10/19 10:59:05;;;;;;;;;;;;;;;;;;4994982;28;20361;-84
2022/10/19 11:01:30;;;;;;;;;;;;;;;;;;4994945;28;19971;-87
2022/10/19 11:03:56;;;;;;;;;;;;;;;;;;5012186;28;20309;-86
2022/10/19 11:06:21;;;;;;;;;;;;;;;;;;5012406;28;20008;-86
2022/10/19 11:08:46;;;;;;;;;;;;;;;;;;4978926;28;20011;-86
2022/10/19 11:11:12;;;;;;;;;;;;;;;;;;5012420;28;20303;-86
2022/10/19 11:13:38;;;;;;;;;;;;;;;;;;4994525;28;19909;-85
2022/10/19 11:16:03;;;;;;;;;;;;;;;;;;4994812;28;20024;-85
2022/10/19 11:18:29;;;;;;;;;;;;;;;;;;5012424;28;19953;-85
2022/10/19 11:20:54;;;;;;;;;;;;;;;;;;5012503;28;20324;-86
2022/10/19 11:23:20;;;;;;;;;;;;;;;;;;4994675;28;19972;-85
2022/10/19 11:25:45;;;;;;;;;;;;;;;;;;4978638;28;20284;-85
2022/10/19 11:28:10;;;;;;;;;;;;;;;;;;4978550;28;20361;-84
2022/10/19 11:30:36;;;;;;;;;;;;;;;;;;5013520;28;19914;-86
2022/10/19 11:33:01;;;;;;;;;;;;;;;;;;4995229;28;19953;-85
2022/10/19 11:35:27;;;;;;;;;;;;;;;;;;4978458;28;20404;-86
2022/10/19 11:37:52;;;;;;;;;;;;;;;;;;4994806;28;20372;-86
2022/10/19 11:40:17;;;;;;;;;;;;;;;;;;4995733;28;19996;-86
2022/10/19 11:42:43;;;;;;;;;;;;;;;;;;4995584;28;20395;-85
2022/10/19 11:45:08;;;;;;;;;;;;;;;;;;4994684;28;19913;-85
2022/10/19 11:47:33;;;;;;;;;;;;;;;;;;4995075;28;19924;-86
2022/10/19 11:49:59;;;;;;;;;;;;;;;;;;4980640;28;19921;-86
2022/10/19 11:52:24;;;;;;;;;;;;;;;;;;4982774;28;19952;-87
2022/10/19 11:54:50;;;;;;;;;;;;;;;;;;4982906;28;19914;-85
2022/10/19 11:57:15;;;;;;;;;;;;;;;;;;5016883;28;19914;-86
2022/10/19 11:59:41;;;;;;;;;;;;;;;;;;5018989;28;19913;-85
2022/10/19 12:02:06;;;;;;;;;;;;;;;;;;5020152;28;20436;-85
2022/10/19 12:04:32;;;;;;;;;;;;;;;;;;5006293;28;19913;-78
2022/10/19 12:06:57;;;;;;;;;;;;;;;;;;5020721;28;19924;-78
2022/10/19 12:09:23;;;;;;;;;;;;;;;;;;5015236;28;19918;-78
2022/10/19 12:11:48;;;;;;;;;;;;;;;;;;4981503;28;20062;-77
2022/10/19 12:14:14;;;;;;;;;;;;;;;;;;4997149;28;20354;-78
2022/10/19 12:16:39;;;;;;;;;;;;;;;;;;4981182;28;19924;-77
2022/10/19 12:19:04;;;;;;;;;;;;;;;;;;5014046;28;19920;-76
2022/10/19 12:21:30;;;;;;;;;;;;;;;;;;4993749;28;20281;-78
2022/10/19 12:23:55;;;;;;;;;;;;;;;;;;4980878;28;20040;-78
2022/10/19 12:26:21;;;;;;;;;;;;;;;;;;5006697;28;19917;-78
2022/10/19 12:28:46;;;;;;;;;;;;;;;;;;5009527;28;19924;-77
2022/10/19 12:31:11;;;;;;;;;;;;;;;;;;4996406;28;19914;-77
2022/10/19 12:33:39;;;;;;;;;;;;;;;;;;4996081;28;20313;-79
2022/10/19 12:36:05;;;;;;;;;;;;;;;;;;5014773;28;19910;-81
2022/10/19 12:38:30;;;;;;;;;;;;;;;;;;5014287;28;19948;-77
2022/10/19 12:40:56;;;;;;;;;;;;;;;;;;5014033;28;19914;-77
2022/10/19 12:43:21;;;;;;;;;;;;;;;;;;4996179;28;20320;-76
2022/10/19 12:45:46;;;;;;;;;;;;;;;;;;5000270;28;19921;-77
2022/10/19 12:48:13;;;;;;;;;;;;;;;;;;4988892;28;19921;-75
2022/10/19 12:50:38;;;;;;;;;;;;;;;;;;4996214;28;19963;-75
2022/10/19 12:53:04;;;;;;;;;;;;;;;;;;4988658;28;19921;-77
2022/10/19 12:55:33;;;;;;;;;;;;;;;;;;5000962;28;20249;-75
2022/10/19 12:57:58;;;;;;;;;;;;;;;;;;5013637;28;19914;-76
2022/10/19 13:00:24;;;;;;;;;;;;;;;;;;5013360;28;20254;-77
2022/10/19 13:02:49;;;;;;;;;;;;;;;;;;5013183;28;20296;-77
2022/10/19 13:05:14;;;;;;;;;;;;;;;;;;4997595;28;19913;-76
2022/10/19 13:07:40;;;;;;;;;;;;;;;;;;5033626;28;19917;-76
2022/10/19 13:10:05;;;;;;;;;;;;;;;;;;5014294;28;20371;-76
2022/10/19 13:12:31;;;;;;;;;;;;;;;;;;5016792;28;20347;-77
2022/10/19 13:14:56;;;;;;;;;;;;;;;;;;5005492;28;20377;-75
2022/10/19 13:17:21;;;;;;;;;;;;;;;;;;5000480;28;20004;-77
2022/10/19 13:19:47;;;;;;;;;;;;;;;;;;5013157;28;19920;-75
2022/10/19 13:22:12;;;;;;;;;;;;;;;;;;4995659;28;19913;-76
2022/10/19 13:24:38;;;;;;;;;;;;;;;;;;4995413;28;19918;-77
2022/10/19 13:27:03;;;;;;;;;;;;;;;;;;5013077;28;19914;-78
2022/10/19 13:29:28;;;;;;;;;;;;;;;;;;5013672;28;19925;-79
2022/10/19 13:31:54;;;;;;;;;;;;;;;;;;5013111;28;19973;-76
2022/10/19 13:34:19;;;;;;;;;;;;;;;;;;5012468;28;20028;-75
2022/10/19 13:36:44;;;;;;;;;;;;;;;;;;5012861;28;19952;-76
2022/10/19 13:39:10;;;;;;;;;;;;;;;;;;5012691;28;19922;-74
2022/10/19 13:41:35;;;;;;;;;;;;;;;;;;5011221;28;19918;-75
2022/10/19 13:44:00;;;;;;;;;;;;;;;;;;4994912;28;19920;-77
2022/10/19 13:46:26;;;;;;;;;;;;;;;;;;4994994;28;19920;-77
2022/10/19 13:48:51;;;;;;;;;;;;;;;;;;5012833;28;19919;-76
2022/10/19 13:51:17;;;;;;;;;;;;;;;;;;5012865;28;20280;-75
2022/10/19 13:53:42;;;;;;;;;;;;;;;;;;4981708;28;20380;-75
2022/10/19 13:56:07;;;;;;;;;;;;;;;;;;4995510;28;19913;-75
2022/10/19 13:58:33;;;;;;;;;;;;;;;;;;4995454;28;19913;-75
2022/10/19 14:00:58;;;;;;;;;;;;;;;;;;5004404;28;20012;-76
2022/10/19 14:03:25;;;;;;;;;;;;;;;;;;4996098;28;20306;-80
2022/10/19 14:05:50;;;;;;;;;;;;;;;;;;4981349;28;20330;-80
2022/10/19 14:08:16;;;;;;;;;;;;;;;;;;5018386;28;19921;-80
2022/10/19 14:10:41;;;;;;;;;;;;;;;;;;5001406;28;19909;-82
2022/10/19 14:13:06;;;;;;;;;;;;;;;;;;5007557;28;19919;-81
2022/10/19 14:15:32;;;;;;;;;;;;;;;;;;5019992;28;19909;-80
2022/10/19 14:17:57;;;;;;;;;;;;;;;;;;4983638;28;20270;-82
2022/10/19 14:20:23;;;;;;;;;;;;;;;;;;5000809;28;19916;-81
2022/10/19 14:22:48;;;;;;;;;;;;;;;;;;5021543;28;20013;-85
2022/10/19 14:25:13;;;;;;;;;;;;;;;;;;5022963;28;19913;-84
2022/10/19 14:27:39;;;;;;;;;;;;;;;;;;5002504;28;20289;-85
2022/10/19 14:30:04;;;;;;;;;;;;;;;;;;4996809;28;19921;-87
2022/10/19 14:32:30;;;;;;;;;;;;;;;;;;4962412;28;19924;-86
2022/10/19 14:34:55;;;;;;;;;;;;;;;;;;5006405;28;19918;-84
2022/10/19 14:37:20;;;;;;;;;;;;;;;;;;4999519;28;19964;-84
2022/10/19 14:39:46;;;;;;;;;;;;;;;;;;4967857;28;20335;-85
2022/10/19 14:42:11;;;;;;;;;;;;;;;;;;4980057;28;19914;-85
2022/10/19 14:44:37;;;;;;;;;;;;;;;;;;5013699;28;19914;-86
2022/10/19 14:47:02;;;;;;;;;;;;;;;;;;4979449;28;19940;-85
2022/10/19 14:49:28;;;;;;;;;;;;;;;;;;4960280;28;19918;-85
2022/10/19 14:51:53;;;;;;;;;;;;;;;;;;4979579;28;19920;-86
2022/10/19 14:54:19;;;;;;;;;;;;;;;;;;4997528;28;19917;-86
2022/10/19 14:56:44;;;;;;;;;;;;;;;;;;4994441;28;19913;-83
2022/10/19 14:59:09;;;;;;;;;;;;;;;;;;4966184;28;19918;-83
2022/10/19 15:01:35;;;;;;;;;;;;;;;;;;4999254;28;19936;-85
2022/10/19 15:04:00;;;;;;;;;;;;;;;;;;4984972;28;20608;-84
2022/10/19 15:06:26;;;;;;;;;;;;;;;;;;4978318;28;20323;-85
2022/10/19 15:08:51;;;;;;;;;;;;;;;;;;4951015;28;19918;-85
2022/10/19 15:11:17;;;;;;;;;;;;;;;;;;4959147;28;19913;-85
2022/10/19 15:13:42;;;;;;;;;;;;;;;;;;4990859;28;20300;-84
2022/10/19 15:16:07;;;;;;;;;;;;;;;;;;5010176;28;19910;-79
2022/10/19 15:18:33;;;;;;;;;;;;;;;;;;5012373;28;19925;-83
2022/10/19 15:20:58;;;;;;;;;;;;;;;;;;4988859;28;20287;-86
2022/10/19 15:23:24;;;;;;;;;;;;;;;;;;4995509;28;19939;-85
2022/10/19 15:25:49;;;;;;;;;;;;;;;;;;4999805;28;19921;-85
2022/10/19 15:28:14;;;;;;;;;;;;;;;;;;4998707;28;19921;-83
2022/10/19 15:30:40;;;;;;;;;;;;;;;;;;5001031;28;20340;-86
2022/10/19 15:33:08;;;;;;;;;;;;;;;;;;5001394;28;19964;-83
2022/10/19 15:35:34;;;;;;;;;;;;;;;;;;4998957;28;19917;-76
2022/10/19 15:37:59;;;;;;;;;;;;;;;;;;4997866;28;19961;-77
2022/10/19 15:40:24;;;;;;;;;;;;;;;;;;4997593;28;20328;-77
2022/10/19 15:42:50;;;;;;;;;;;;;;;;;;5014697;28;19917;-77
2022/10/19 15:45:15;;;;;;;;;;;;;;;;;;5004409;28;19940;-76
2022/10/19 15:47:40;;;;;;;;;;;;;;;;;;4997455;28;19918;-74
2022/10/19 15:50:06;;;;;;;;;;;;;;;;;;4981197;28;19971;-77
2022/10/19 15:52:32;;;;;;;;;;;;;;;;;;5014646;28;19913;-77
2022/10/19 15:54:57;;;;;;;;;;;;;;;;;;5006560;28;19921;-75
2022/10/19 15:57:23;;;;;;;;;;;;;;;;;;4997229;28;20380;-76
2022/10/19 15:59:48;;;;;;;;;;;;;;;;;;5015825;28;20012;-85
2022/10/19 16:02:13;;;;;;;;;;;;;;;;;;5015242;28;20340;-79
2022/10/19 16:04:39;;;;;;;;;;;;;;;;;;4997278;28;20328;-79
2022/10/19 16:07:04;;;;;;;;;;;;;;;;;;5015093;28;19921;-79
2022/10/19 16:09:29;;;;;;;;;;;;;;;;;;5004618;28;19921;-80
2022/10/19 16:11:56;;;;;;;;;;;;;;;;;;5022265;28;19940;-79
2022/10/19 16:14:21;;;;;;;;;;;;;;;;;;5020324;28;19920;-79
2022/10/19 16:16:47;;;;;;;;;;;;;;;;;;4998277;28;19913;-80
2022/10/19 16:19:12;;;;;;;;;;;;;;;;;;5004626;28;20402;-81
2022/10/19 16:21:37;;;;;;;;;;;;;;;;;;4997550;28;19913;-79
2022/10/19 16:24:03;;;;;;;;;;;;;;;;;;5014548;28;19917;-79
2022/10/19 16:26:30;;;;;;;;;;;;;;;;;;5016026;28;19929;-79
2022/10/19 16:28:56;;;;;;;;;;;;;;;;;;4981322;28;19975;-78
2022/10/19 16:31:21;;;;;;;;;;;;;;;;;;5014480;28;20380;-79
2022/10/19 16:33:46;;;;;;;;;;;;;;;;;;5011035;28;19921;-78